Triathlon TRISAPIN - 20/06/2010

Longue Distance


Pl Do. Nom - Surname Prénom - Name S-Cat /cat Club - Team TEMPS - Time /sx LICENCE
1 49 DEPRET RUDY MS4 1 CANNIBAL 4:44:56.72 1 030087198350MS4BEL
2 128 BASTIE CHRISTOPHE MV1 1 ASMSE 4:46:49.36 2 070420770450MV1FRA
3 398 WITH DAMIEN MS2 1 TEAM MERMILLOD TRIATHLON 4:51:15.62 3 071454792684MS2FRA
4 430 PIRON EMMANUEL MV1 2 VICHY TRIATHLON 4:58:46.97 4 150226646032MV1FRA
5 415 LAGIER LAURENT MS4 2 TULLE TRIATHLON 4:59:34.17 5 160041571423MS4FRA
6 54 MORATIN STEPHANE MS3 1 TRITYC 5:00:56.08 6 051017103347MS3FRA
7 147 HUET STEPHANE MS4 3 US CRETEIL TRIATHLON 5:02:08.41 7 010220297MS4FRA
8 27 DEBOES CHRISTOPHE MS4 4 ASM.SAINT-ETIENNE TRIATHLON 42 5:02:36.22 8 070423879548MS4FRA
9 396 ESPITALIER SEBASTIEN MS3 2 TEAM MERMILLOD TRIATHLON 5:02:58.73 9 071454850532MS3FRA
10 391 MICHEL LOIC MS2 2 TEAM MERMILLOD TRIATHLON 5:03:20.97 10 071452817950MS2FRA
11 41 MAJEWSKI ALEXANDRE MS3 3 MACH 3 TRIATHLON 5:04:05.98 11 070486823932MS3FRA
12 500 ROLLIN ARTHUR MMAS 1 OLYMPIQUE MONTREAL 5:04:20.14 1 tq4132
13 412 BIVILLE PATRICE MV1 3   5:06:07.60 12 090280961822MV1FRA
14 392 ARNAUD CEDRIC MS3 4 LES ALLIGATORS SEYNOD TRIATHLON 5:07:27.77 13 071404111147MS3FRA
15 439 GUILLAUME PHILIPPE MS2 3 A. L. ECHIROLLES 5:09:29.03 14 071429070631MS2FRA
16 80 MORIN DIDIER MS4 5 VAL DE REUIL TRIATHLON 5:10:37.21 15 190055082648MS4FRA
17 437 ANDING STEPHANE MV1 4 RIXELM TRI 132 5:12:13.58 16 060200716523MV1FRA0
18 395 FANTOLI OLIVIER MV1 5 TEAM MERMILLOD TRIATHLON 5:13:08.12 17 071450551781MV1FRA
19 351 BOIS JEAN-CHRISTOPHE MS4 6 CVR LYON TRI 5:13:21.77 18 070602273232MS4FRA
20 266 JONIN CHRISTIAN MV1 6 ASVEL TRIATHLON 5:13:50.31 19 071045481132MV1FRA
21 326 BELZ ARNAUD MS3 5 hyères triathlon 5:14:22.34 20 101335466953MS3FRA
22 316 CHARITAT ERIC MS4 7 TRYSSINGEAUX 5:16:03.42 21 150206455599MS4FRA
23 121 PICARD BASTIEN MS3 6 VAL DE REUIL TRIATHLON 5:16:04.80 22 190057862642MS3FRA
24 57 LALEVEE MATTHIEU MS1 1 VITTEL TRIATHLON 5:17:22.59 23 050387918584MS1FRA
25 309 JACQUES PIERRE ANDRE MS2 4 LES MILLE PATTES TRIATHLON 5:17:32.96 24 071288316499MS2FRA
26 173 DAUMAS ROMAIN MS3 7 VICHY TRIATHLON 5:18:34.99 25 150228640450MS3FRA
27 512 JUSOT JEAN MARIE MMAS 2 CDC TRIATHLON 5:18:39.72 2 220585119123MS3FRA
28 32 GONZALEZ SEBASTIEN MV1 7   5:18:43.13 26 PASS JOURNEE
29 286 BOURDIN JEROME MS3 8 CLUB NAUTIQUE PONTARLIER TRIATHLON 5:19:18.57 27 230178560942MS3FRA
30 285 MROZINSKI COLIN MS1 2 GUC TRIATHLON 5:19:25.62 28 071307711384MS1FRA
31 445 ALLAIN JEROME MS4 8 COMITE SPORTIF DU LAC DES SAPINS 5:19:44.36 29 071240770299MS4FRA
32 323 PERSONNE GREGORY MS4 9 TC2R 5:19:51.77 30 071440860447MS4FRA
33 368 VON BERG RODOLPHE MV3 1 BRUSSELS TRIATHLON CLUB 5:21:14.64 31  
34 265 CHALOT PASCAL MV3 2 ASVEL TRIATHLON 5:21:16.74 32 071046863532MV3FRA
35 405 CATON JEAN-PIERRE MS3 9 CRV LYON TRIATHLON 5:21:30.47 33 070606025336MS3FRA
36 175 BORRION REMI MS4 10 DIJON TRIATHLON 5:21:52.62 34 220017473436MS4FRA
37 43 MASSON BRUNO MV1 8 US PALAISEAU TRIATHLON 5:22:31.49 35 010366673847MV1FRA
38 507 DEVIGNOT FREDERIC MMAS 3   5:22:41.19 3 PASS JOURNEE
39 305 BERNARD STEPHANE MS3 10 LES MILLE PATTES TRIATHLON 5:22:51.17 36 071284823936MS3FRA
40 96 SADER THIBAUD MS1 3 FREE IRON TEAM 5:23:03.45 37 040318745384MS1FRA
41 319 LOUET CHRISTOPHE MV1 9 TRIATHLON CLUB AUXONNAIS 5:23:08.24 38 220618626250MV1FRA
42 432 MOUCHARD ROMUALD MV1 10 TEAM MERMILLOD TRIATHLON 5:23:43.32 39 071455577153MV1FRA
43 56 LANGE STEPHANE MS4 11 CREPY TRIATHLON 5:23:51.31 40 030309192947MS4FRA
44 133 CAMBIEN JOEL MS3 11 VMT 5:24:54.27 41 011388966332MS3FRA
45 290 BARTHELEMY JEAN-CLAUDE MV1 11 GRESIVAUDAN TRIATHLON 5:25:47.22 42 071648140842MV1FRA
46 26 HEBERT JULIEN MS2 5 SAINT AVERTIN SPORTS 37 5:26:24.83 43 170609178942MS2FRA
47 198 POIZAT ERIC MV2 1 TRIATHLON MACON CLUB 5:27:19.73 44 220031947132MV2FRA
48 275 PHILIPPE XAVIER MS3 12 ASVEL TRIATHLON 5:27:29.54 45 071044849436MS3FRA
49 177 CARE SYLVAIN MS4 12 SAVOIE TEAM TRIATHLON 5:28:07.00 46 071674780199MS4FRA
50 34 SOUBOUL HICHAM MS3 13 U.S.O. BEZONS 5:28:10.49 47 011288016847MS3FAR
51 20 FER YVES MV1 12 U.S.O. BEZONS 5:28:25.38 48 140054481750MV1FRA
52 195 TRUANT BRUNO MS4 13 TRIATHLON SANNOIS FRANCONVILLE 5:28:49.99 49 011785973199MS4FRA
53 302 GAVOIS RICHARD MS4 14 STADE LAURENTIN TRIATHLON 5:29:27.18 50 100466181642MS4FRA
54 106 DEMARES JEAN GUILLAUME MS4 15 LAGARDERE PARIS RACING 5:29:36.44 51 010085283036MS4FRA
55 119 FRICONNET PATRICE MV1 13 TRIATHLON CLUB TORCY 5:29:45.54 52 010580246136MV1FRA
56 169 BUZZARELLO YANNICK MS3 14 Echirolles Triathlon 5:29:56.07 53  
57 298 VIDBERG MANUEL MS2 6 CLUB NAUTIQUE PONTARLIER TRIATHLON 5:30:05.29 54 230177863699MS2FRA
58 238 QUINTIN THIERRY MV2 2 US PALAISEAU TRIATHLON 5:30:08.20 55 010368773323MV2FRA
59 249 COLIN DENIS MS3 15 CLUB NAUTIQUE PONTARLIER TRIATHLON 5:30:26.42 56 230176244743MS3FRA
60 243 DOMPTAIL LAURENT MS4 16 TRI LION BELFORT 5:30:58.44 57 230025187136MS4FRA
61 393 VENNEVAULT ALEX MV3 3 TOULON TRIATHLON MUTUELLE VERTE 5:31:28.58 58 101364987232MV3FRA
62 353 VIOLLAND NICOLAS MS3 16 A. L. ECHIROLLES 5:31:33.52 59 071426040736MS3FRA
63 155 FLORIMONO ALEXANDRE MS2 7 TRIATHLON NANCY LORRAINE 5:31:37.80 60 050036784150MS2FRA
64 132 COURTIAL PHILIPPE MV2 3 Stade Français Triathlon 5:32:17.66 61 010390184136MV2FRA
65 402 BRION MATHIEU MS3 17 ALE TRIATHLON 5:33:39.72 62 071426857132MS3FRA
66 120 DEWAELE THOMAS MS3 18 TRIATHLON CLUB TORCY 5:34:01.28 63 010585907036MS3FRA
67 434 PICHON LIONEL MS3 19 CHAMBERY TRIATHLON 5:34:02.88 64 071344100150MS3FRA
68 371 COLLEMARE STAEPHANE MV1 14 TRIALP MOIRANS 5:35:03.14 65 071355558632MV1FRA
69 335 LEDOUX THOMAS MS3 20 Stade Français Triathlon 5:36:34.14 66 010395357936MS3FRA
70 288 SZYMEZAK PIERRE MS3 21 ANNONAY TRIATHLON 5:36:47.21 67 07146816574MS3FRA
71 90 HENTIC JEAN RENE MV1 15 FREE IRON TEAM 5:36:56.72 68 040315492632MV1FRA
72 237 MAMESSIER DAVID MS2 8 TRI-COW-THLON71 5:37:15.60 69 220647337447MS2FRA
73 108 HERAULT MATHIEU MS3 22 TRI07 PRIVAS TRIATHLON 5:37:22.21 70 071367585499MS3FRA
74 145 BERNE ANTHONY MS3 23 MACH3 TRIATHLON 5:37:50.67 71 070487449236MS3FRA
75 367 REVEL RENAUD MV1 16 MACH 3 TRIATHLON 5:37:50.96 72  
76 297 CARRE LIONEL MV1 17 US PALAISEAU TRIATHLON 5:38:32.71 73 010366672436MV1FRA
77 202 FERRAND CHRISTOPHE MS4 17 CRV LYON TRIATHLON 5:38:36.64 74 070601619636MS4FRA
78 258 MORETTO OLIVIER MV2 4 ASMSE 5:39:06.04 75 070427204022MV2FRA
79 239 CHATENET MARIAN MS4 18 GUC TRIATHLON 5:39:45.90 76 071305783532MS4FRA
80 185 DIDIER LIONEL MV1 18 A. L. ECHIROLLES 5:39:50.18 77 071423281836MV1FRA
81 380 LEFRANC DENIS MV2 5 TRIATHLON MACON CLUB 5:40:28.96 78 220031950247MV2FRA
82 171 COUSIN LAURENT MV1 19 TRIATHLON VILLEFRANCHE SAONE VALLE 5:41:03.96 79 070667829248MV1FRA
83 151 ANDRIEU EMMANUEL MV1 20 DIJON TRIATHLON 5:41:52.89 80 220017334336MV1FRA
84 9 ALONSO ARNAUD MS4 19   5:41:53.91 81  
85 506 DUMAS MATHIEU MMAS 4 ASVEL TRIATHLON 5:42:03.56 4 071044737050MS4FRA
86 272 MANIN LIONEL MS4 20 ASVEL TRIATHLON 5:42:20.63 82 071046858932MS4FRA
87 352 JACQUET LOIC MS4 21 OULLINS TRIATHLON 5:42:24.98 83 070676547750MS4FRA
88 329 JONDEAU EMMANUEL MV1 21 TRIATHLON VILLEFRANCHE SAONE VALLE 5:42:36.09 84 070668628632MV1FRA
89 345 RUBILONI GILLES MV2 6 CLUB NAUTIQUE PONTARLIER TRIATHLON 5:42:41.18 85 230172315250MV2FRA
90 292 TARDY BENOIT MV2 7 LES MILLE PATTES TRIATHLON 5:42:59.25 86 071280833748MV2FRA
91 300 BILLET JEAN-MARC MS2 9 PALAISEAU 5:43:06.30 87 10368773036MS2FRA
92 150 MOSSERON MERRI MS4 22 VINEUIL SPORT TRIATHLON 5:43:09.20 88 170156643042MS4FRA
93 107 BRISON CHRISTOPHE MV1 22 MACH 3 TRIATHLON 5:43:17.04 89 070483709850MV1FRA
94 55 PERES CHRISTOPHE MS4 23 TSF95 5:43:25.02 90 011786811099MS4FRA
95 165 BAPT GREGORY MS2 10 OULLINS TRIATHLON 5:43:40.27 91 070677710832MS2FRA
96 140 VEYRE JEAN PHILIPPE MV1 23 COMITE SPORTIF DU LAC DES SAPINS 5:43:58.64 92 071246451742MV1FRA
97 278 SALLIN PHILIPPE MV1 24 ASVEL TRIATHLON 5:44:18.32 93 071046061223MV1FRA
98 135 MOREL DAVID MS4 24 TRI TOUL TEAM 5:44:20.79 94 050865603653MS4FRA
99 354 PEYROT FREDERIC MS3 24 TVSV 5:45:26.36 95 070665555750MS3FRA
100 87 LAURENT OLIVIER MS3 25 MACH 3 TRIATHLON 5:45:57.36 96 070488150948MS3FRA
101 369 MARTY BENOIT MV1 25 TEAM ANDURANCE 06 5:46:53.13 97  
102 289 DELAUNAY FREDERIC MV1 26 ANNONAY TRIATHLON 5:47:17.09 98 071460860136MV1FRA
103 435 CHARITAT MICHEL MS4 25 TRYSSINGEAUX 5:47:44.25 99 150206998199MS4FRA
104 503 LEBLANC PATRICK MMAS 5 CAVAILLON TRIATHLON CLUB 5:48:16.92 5 090321044448MV4FRA
105 256 JOASSARD FRANCK MS4 26 ASMSE 5:48:44.29 100 070428644021MS4FRA
106 39 HIEBEL FREDERIC MS3 26 SAINT PAUL - LA COLLE TRIATHLON 5:48:45.59 101 100586663236MS3FRA
107 479 HATIN CORINNE FV1 1 ASVEL TRIATHLON 5:49:24.96 1 1,71E+11
108 83 DEL OLMO DIEZ SEBASTIEN MS4 27 TRIATHLON DU SALEVE 5:49:53.42 102 071377490036MS4FRA
109 379 L HOTHELLIER MATHIEU MS2 11 ES NANTERRE 5:50:31.91 103 010536964136MS2FRA
110 234 FENDELEUR MICKAEL MS3 27 TRI LION BELFORT 5:50:47.37 104 230025455436MS3FRA
111 53 CORSO GERARD MV2 8 TRIATHLON SANNOIS FRANCONVILLE 5:51:32.54 105 011786419199MV2FRA
112 431 PIERRET CHRISTOPHE MV2 9 TRIATHLON MACON CLUB 5:51:43.36 106 220032820436MV2FRA
113 115 HAMELIN CYRIL MS3 28 TRIATHLON CLUB DE VILLEPARISIS 5:51:45.32 107 010488534650MS3FRA
114 19 FERNANDEZ ALAIN MV1 27 U.S.O. BEZONS 5:51:53.30 108 011285354699MV1FRA
115 344 DESBARATS THIERRY MV2 10 LOURDES TRIATHLON 5:52:03.33 109 120116136850MV2FRA
116 317 MICOUD FABRICE MS4 28 A. L. ECHIROLLES TRIATHLON 5:52:10.81 110 071424795547MS4FRA
117 357 LANGUET BRUNO MV1 28 MACH 3 TRIATHLON 5:52:13.41 111 070488960143MV1FRA
118 383 DALLA-BARBA PATRICK MV4 1 ISTRES SPORT TRIATHLON 5:52:19.22 112 090110989152MV4FRA
119 14 RICHARD ALEXANDRE MS4 29 ORLEANAIS TRIATHLON CLUB 45 5:52:34.40 113 170367463036MS4FRA
120 214 BASSETTO JEAN MARC MV2 11 Triathlon du Salève 5:52:46.82 114 071370917043MV2FRA
121 310 JACQUIER LUC MV3 4 LES MILLE PATTES TRIATHLON 5:52:56.40 115 071280845731MV3FRA
122 126 CASALIS JOEL MV2 12 AVIGNON - LE PONTET TRIATHLON 5:53:06.72 116 090060961436MV2FRA
123 178 MAZZADI FRANCK MS4 30 trisaleve 5:53:21.75 117 071374112250MS4FRA
124 226 ERRIAHI RIDHA MV1 29 TRICASTIN TRIATHLON CLUB 5:53:27.34 118 071320869750MV1FRA
125 489 KOUKLEVSKY ANNE FS4 1 CHAMBERY TRIATHLON 5:53:32.29 2 1,71E+11
126 36 MAUPAS GUILLAUME MS3 29 TRI. MAY 5:53:45.56 119 150107717950MS3FRA
127 221 FROEHLICH PATRICE MS3 30 TRI LION BELFORT 5:54:03.09 120 230027020936MS3FRA
128 511 SABY BAPTISTE MMIX 1 COMITE SPORTIF DU LAC DES SAPINS 5:54:14.69 6  
129 86 SENECLAUZE ARNAUD MS4 31 LES ALLIGATORS SEYNOD TRIATHLON 5:54:29.93 121 071403554636MS4FRA
130 158 NEN YANNICK MS4 32 TRIATHLON 91 5:54:45.91 122 010168612136MS4FRA
131 406 FAUROUS RICHARD MV1 30 Metz-triathlon 5:54:59.05 123 050269510984MV1FRA
132 216 CAMPESTRIN JACQUES MV2 13 TRIALP MOIRANS 5:55:17.43 124 071356114836MV2FRA
133 223 LANGLE PIERRE MV3 5 US PALAISEAU TRIATHLON 5:55:47.93 125 010367216036MV3FRA
134 312 ROBIN DANIEL MV3 6 LES MILLE PATTES TRIATHLON 5:55:49.66 126 071285499748MV3FRA
135 279 TESSIER REGIS MV1 31 ASVEL TRIATHLON 5:56:09.56 127 071043342747MV1FRA
136 280 TRILLAT RICHARD MS4 33 ASVEL TRIATHLON 5:56:52.11 128 071043217732MS4FRA
137 174 BOUTROIS EMMANUEL MS4 34 TRIATHLON 61 ARGENTAN 5:56:58.72 129 200042431250MS4FRA
138 268 LAGER RAPHAEL MS4 35 ASVEL TRIATHLON 5:57:05.40 130 071048794245MS4FRA
139 299 LECLERC PHILIPPE MV1 32 CLUB NAUTIQUE PONTARLIER TRIATHLON 5:57:17.82 131 230177124047MV1FRA
140 190 DESCHAMPS JOEL MV2 14 LIMOGES TRIATHLON 5:57:19.56 132 160126992650MV2FRA
141 253 FAURIE ERIC MS4 36 ASMSE 5:57:33.50 133 070427304436MS4FRA
142 209 BRUNET FABRICE MV1 33 Antony Triathlon 5:58:00.52 134 011796563532MV1FRA
143 444 BASSET YVONNICK MV1 34 RSC CHAMPIGNY TRIATHLON 5:58:24.78 135 010448546631MV1FRA
144 247 MICHALOT JULIEN MS3 31 TRIATHLON MANOSQUE 5:58:42.34 136 091001198947MS3FRA
145 441 MENETRIER FRANCK MV1 35 TRIATHLON MANOSQUE 5:58:42.36 137 091005722223mv1fra
146 429 BERTRAND MICHEL MV3 7 C.R.V LYON TRIATHLON 5:58:46.49 138 070600799948MV3FRA
147 414 PICHOT-DUCLOS PHILIPPE MV3 8 PUISSANCE 3 COURNON 5:58:49.82 139 450077711445MV3FRA
148 384 BONNET SEBASTIEN MS3 32 MARIGNANE TRIATHLON 5:59:03.91 140 090304361147MS3FRA
149 375 BALANDRAUD ERIC MS4 37 CNP 5:59:07.19 141 010154809099MS4FRA
150 227 SERY MICKAEL MS4 38 TRICASTIN TRIATHLON CLUB 5:59:30.34 142 071327778699MS4FRA
151 271 MANCINI MAURIZIO MV1 36 ASVEL TRIATHLON 6:00:22.70 143 071048830636MV1FRA
152 148 MOLLIE SYLVAIN MS4 39 ROANNE TRIATHLON 6:00:35.25 144 070338154132MS4FRA
153 102 CHARDIN CHRISTOPHE MV2 15 CLUB DES NAGEURS DE PARIS 6:00:39.25 145 010156961599MV2FRA
154 183 PRIMEL OLIVIER MV2 16 US CRETEIL TRIATHLON 6:01:02.11 146 010223816532MV2FRA
155 362 JULLIAN FREDERIC MV3 9 TRI CLUB ISLE SUR LA SORGUE 6:01:24.84 147 090120997831MV3FRA
156 215 BICHON YOHANN MS3 33 T.C.G.79 6:02:05.57 148 140195873332MS3FRA
157 343 TITEUX ARNAUD MV2 17 TRIATHLON EPINAL CLUB 6:02:16.83 149 050040596447MV2FRA
158 308 GOUVIAUX LAURENT MV1 37 LES MILLE PATTES TRIATHLON 6:02:28.24 150 071289343536MV1FRA
159 156 VALENTIN ANTONIO MV1 38 A.S. CORBEIL-ESSONNES TRIATHLON 6:02:36.73 151 011233827336MV1FRA
160 426 SORET GERALD MS4 40 VAULX EN VELIN TRIATHLON 6:02:37.38 152 070614541850MS4FRA
161 378 BUHOT LAUNAY PIERRE MS3 34 TRI 91 6:03:18.99 153 010167581632MS3FRA
162 104 SCAFIDI PASCAL MV1 39 GRENOBLE UC TRIATHLON 6:03:21.24 154 071304365036MV1FRA
163 248 GUEGAN JULIEN MS4 41 TRIATHLON DU SALEVE 6:03:26.10 155 071375454436MS4FRA
164 207 FERLET YANNICK MS4 42 ROANNE TRIATHLON 6:03:41.64 156 070338131250MS4FRA
165 349 ROUSSET NICOLAS MS1 4 ASAV TRIATHLON 6:04:01.97 157 220578719199MS1FRA
166 264 LAFFONT MARC MV3 10 ASVEL TRIATHLON 6:04:06.69 158 071043342136MV3FRA
167 3 LEGER NICOLAS MS4 43 THOUARS TRIATHLON 6:04:14.53 159 140621588632MS4FRA
168 443 TERRANOVA STEPHANE MS4 44 TROLL TEAM TRIATHLON 6:04:18.01 160 071654104342MS4FRA
169 421 SAILLARD STEPHANE MS3 35 CLUB NAUTIQUE PONTARLIER TRIATHLON 6:04:23.39 161 230179527650MS3FRA
170 350 LIEBERMANN RENE MV2 18 CLUB NAUTIQUE PONTARLIER TRIATHLON 6:04:23.61 162 230176245299MV2FRA
171 360 JUNIQUE LAURENT MV2 19 MACH 3 TRIATHLON 6:04:28.69 163 070480790250MV2FRA
172 388 DORNIER CHARLES MS2 12 CLUB NAUTIQUE PONTARLIER TRIATHLON 6:04:35.59 164 230179527160MS2FRA
173 211 LE CHEVILLIER XAVIER MS4 45 tcg79 6:04:39.36 165 140196747152MS4FRA
174 103 BARON ARNAUD MS3 36 AMBERIEUX EN BUGEY 6:04:47.00 166 071258143599MS3FRA
175 257 LANIEL JOSEPH MV5 1 ASMSE 6:05:00.43 167 070420766070MV5FRA
176 122 TERSTEGGE PAUL MS4 46 LAGARDERE PARIS RACING 6:05:04.64 168 010089342336MS4HOL
177 510 DELAGE SANDRINE MMIX 2 COMITE SPORTIF DU LAC DES SAPINS 6:05:06.60 7  
178 255 HADJ RABAH FARID MS3 37 ASMSE 6:05:52.35 169 070426118042MS3FRA
179 403 FERRARI ERIC MV2 20 TRIATHLON MACON CLUB 6:06:10.06 170 220031948950MV2
180 182 NAHON LUC MV2 21 GRENOBLE UC TRIATHLON 6:06:54.00 171 071303273032MV2FRA
181 200 AMICE SEBASTIEN MS2 13 MACH3 TRIATHLON 6:07:05.83 172 070487872331MS2FRA
182 123 LAIDI LIES MV4 2 SAINT HERBLAIN TRIATHLON 6:07:56.38 173 180901680131MV4FRA
183 338 MURCIANI CHRISTOPHE MV1 40 UNION ATHLETIQUE SOCIETE GENERALE 6:07:58.04 174 011433531036MV1FRA
184 172 ZANARDELLI ERIC MV2 22 ANNONAY TRIATHLON 6:08:11.69 175 071465224860MV2FRA
185 254 GACHON YVES MS4 47 ASMSE 6:08:23.02 176 070423439136MS4FRA
186 399 RENOU LAURENT MV1 41 Dauphins de Sceaux 6:08:52.35 177 011315494799MV1FRA
187 220 FALGERE PHILIPPE MV1 42 TROLL TEAM TRIATHLON 6:09:15.73 178 071654239836MV1FRA
188 471 JULIA ANNE-France FV2 1 TRI 07 PRIVAS TRIATHLON 6:09:38.97 3 1,71E+11
189 321 DEGRUSON SAMUEL MS4 48 RILLIEUX TRIATHLON 6:09:51.52 179 070397494536MS4FRA
190 10 CAILLON FREDERIC MS4 49 THOUARS TRIATHLON 6:09:59.00 180 140628574347MS4FRA
191 407 FERRET OLIVIER MS4 50 TCML 6:10:40.75 181 071608199332MS4FRA
192 294 LACOUR NICOLAS MS4 51 TRI 07 PRIVAS TRIATHLON 6:11:37.89 182 071364800142MS4FRA
193 461 VETSCH PETRA FS3 1 TRIVIERA 6:12:00.03 4 1,71E+11
194 92 PHILIP SYLVAIN MS4 52 TRISPIRIDON OYONNAX 6:12:21.81 183 070246820947MS4FRA
195 304 VOZ SIMON MV1 43 TRI VAL DE GRAY 6:12:46.13 184 230157014931MV1BEL
196 477 LATTARICO NATHALIE FV1 2 A. L. ECHIROLLES 6:12:50.71 5 1,71E+11
197 355 GIROUDON GHISLAIN MS1 5 LES SARDINES 6:12:57.17 185 09103T248936MS4FRA
198 382 MECHIN ERIC MV2 23 TRI 07 PRIVAS TRIATHLON 6:13:26.57 186 071363278045mv2fra
199 93 PERON JEAN PAUL MV3 11 FREE IRON TEAM 6:14:08.10 187 040316203250MV3FRA
200 442 ESCLAPEZ ERIC MV2 24 TRIATHLON MANOSQUE 6:14:39.11 188 091008408250MV2FRA
201 203 MOLLAR FREDERIC MV1 44 SAINT PRIEST TRIATHLON 6:14:47.89 189 070586077150MV1FRA
202 129 MENDY JOSE MS4 53 AVIGNON - LE PONTET TRIATHLON 6:15:01.76 190 090060964160MS4FRA
203 324 BOURBONNAIS FRED MV1 45 ROMANS TRIATHLON 6:15:02.70 191 071384100950MV1FRA
204 125 MERMIER NICOLAS MV1 46 AVIGNON - LE PONTET TRIATHLON 6:15:17.65 192 090066155836MV1FRA
205 168 ESCOURIDO VIGO CHRISTOPHE MV1 47 US PALAISEAU TRIATHLON 6:15:32.33 193 010364243060MV1FRA
206 331 NACCACHE PHILIPPE MV2 25 CRENSOA TRIATHLON 6:15:51.13 194 1,40E+11
207 381 POLLAK Stéphane MV1 48 LES ALLIGATORS SEYNOD TRIATHLON 6:16:01.67 195 071405235847MV1FRA
208 363 DAMET REGIS MV2 26 BEAUNE MONNOT TRIATHLON 6:16:08.85 196 220268238952MV2FRA
209 233 LATAPY PHILIPPE MV1 49 TRI 07 PRIVAS TRIATHLON 6:16:09.86 197 071366104847MV1FRA
210 141 LECOMTE STEPHANE MS3 38 AS GIEN NATATION SECTION TRIAHTLON 6:16:20.97 198 170348369353MS3FRA
211 330 FONTAINE JEROME MS4 54 tri91 6:16:36.44 199 010168612032ms4fra
212 252 DAVID PASCAL MV1 50 ASMSE 6:16:53.50 200 070427304350MV1FRA
213 259 TESTARD PHILIPPE MS4 55 ASMSE 6:17:06.06 201 070422691032MS4FRA
214 342 PERNY GERALD MV1 51 TRIATHLON EPINAL CLUB 6:17:13.47 202 050044884545MV1FRA
215 134 MATTONI NICOLAS MS2 14 ASL SUEZ SECTION TRIATHLON 6:17:32.85 203 012078666250MS2FRA
216 291 CHAIR DAVID MS4 56 SAINT-PRIEST TRIATHLON 6:17:44.32 204 070588161250MS4FRA
217 180 CHERIAUX GILLES MV1 52 Antony triathlon 6:17:44.77 205 011790264032mv1fra
218 509 VERINGMEIER WERNER MMAS 6 C.R.V LYON TRIATHLON 6:17:58.19 8 070604065936MV1HOL
219 447 MORIN YVES MV1 53 CHALON TRIATHLON CLUB 6:18:06.54 206 220061956850MV1FRA
220 303 CARRAZ MANUEL MS4 57 TRI VILLEFRANCHE 6:18:24.69 207 070662817042MS4FRA
221 89 ALLARD RONAN MS4 58 T.O.A.C TOULOUSE AEROSPATIALE 6:18:39.71 208 120120300536MS4FRA
222 167 DECUGIS STEPHANE MS4 59 NEUVES MAISONS TRIATHLON 54 6:18:42.62 209 050606857236MS4FRA
223 347 LE BIHAN ERIC MV1 54 US PALAISEAU TRIATHLON 6:19:38.67 210 010362440747MV1FRA
224 409 BELHADDAD MADJID MS4 60 PASSY MONT BLANC TRIATHLON 6:20:19.26 211 071477929150MS4FRA
225 269 LE BEHEREC MAXIME MS3 39 ASVEL TRIATHLON 6:20:29.56 212 071044729436MS3FRA
226 325 PAJOT PASCAL MV1 55 AS GIEN NATATION SECTION TRIATHLON 6:20:31.95 213 170347086947mv1fra
227 314 GARRIVIER BERNARD MV3 12 TRI SAINT AMANT DUN 18 6:20:35.30 214 170253562247MV3FRA
228 65 GACHIGNAT PHILIPPE MV3 13 SAINT AVERTIN SPORTS 37 6:20:47.35 215 170601623031MV3FRA
229 390 PINGET CHRISTOPHE MS3 40 TRIATHLON DU SALEVE 6:21:01.94 216 071378721736MS3FRA
230 179 COLARAS YAN MS3 41 Triathlon du Salève 6:21:08.11 217 071377240450MS3FRA
231 427 CORNELOUP DENIS MV2 27 VAULX EN VELIN TRIATHLON 6:21:25.17 218 070614543950MV2FRA
232 419 LENNOZ-GRATIN GUY MV1 56 ALBERTVILLE TARENTAISE TRIATHLON 6:21:42.01 219 071628145550MV1FRA
233 50 ROBERT SEBASTIEN MS3 42 BOURGES TRIATHLON 6:21:42.67 220 170037412442MS3FRA
234 436 ESLING PHILIP MV2 28 COMPIEGNE TRIATHLON 6:22:28.92 221 030179450731MV2FRA
235 307 GAUDIN JEAN CHRISTOPHE MV2 29 LES MILLE PATTES TRIATHLON 6:22:37.86 222 071280833050MV2FRA
236 313 VIDAL LAURENT MS4 61 LES MILLE PATTES TRIATHLON 6:23:10.89 223 071283743347MS4FRA
237 100 GUERRE JULIEN MS3 43 ASSP TRIATHLON 69 6:23:35.72 224 071579343732MS3FRA
238 284 VAN VOORTHUYSEN THIERRY MV3 14 BOURG EN BRESSE TRIATHLON 6:23:37.38 225 070417853932MV3FRA
239 356 NEPLAZ PATRICK MV4 3 Triathlon du Salève 6:24:11.80 226 071375575647MV4FRA
240 225 DUFOUR JEAN MARC MV3 15 TRICASTIN TRIATHLON CLUB 6:24:34.29 227 071322307347MV3FRA
241 149 HAMISSI FETHI MV2 30 TRISALEVE 6:24:37.28 228 071378501450MV2FRA
242 361 DELFAU PHILIPPE MV1 57 UNION SPORTIVE DES NAGEUR DE MO 6:24:49.54 229 111001306336MV1FRA
243 389 JARREAU RICHARD MS4 62 TOULON TRIATHLON MUTUELLE VERTE 6:24:56.08 230 101363523432MS4FRA
244 287 MERLEY CEDRIC MS3 44 RILLIEUX TRIATHLON 6:25:25.41 231 070397190547MS3FRA
245 282 PANNIER DIDIER MV2 31 ASAV TRIATHLON 6:25:31.95 232 220575100122MV2FRA
246 18 COMBE FRANCOIS MV1 58 U.S.O. BEZONS 6:25:53.87 233 011280374021MV1FRA
247 118 DUDON MARC MV2 32 T.O.A.C TOULOUSE AEROSPATIALE 6:25:57.93 234 120122613847MV2FRA
248 501 PIFFARD JOSETTE MMIX 3 ASAV TRIATHLON 6:25:59.61 9 220576284050FV4FRA
249 222 COSTER STANISLAS MS3 45 Levallois Triathlon 6:26:43.96 235 011137571436MS3FRA
250 376 LAUTRET Philippe MS4 63 ASCE TRIATHLON 6:27:29.33 236 011237578348MS4FRA
251 88 BOLZER LAURENT MS4 64 CEPS DINAN ARMOR TRIATHLON 6:27:37.47 237 210867765745MS4FRA
252 116 JANTZEN NICOLAS MS3 46 TRIATHLON CLUB DE VILLEPARISIS 6:27:40.74 238 010487673350MS3FRA
253 77 BOZON JEAN MARC MV3 16 TRIATHLON DU SALEVE 6:28:31.62 239 071379281022MV3FRA
254 194 PIRAT FRANCK MS4 65 SIX FOURS TRIATHLON 6:28:56.02 240 100136767899MS4FRA
255 446 LUSSEAU STEPHANE MV1 59 US PALAISEAU TRIATHLON 6:28:58.99 241 010363488936MV1FRA
256 333 MARI FREDERIC MV1 60 US PALAISEAU TRIATHLON 6:29:02.04 242 010369545199mv1
257 12 OLIVE RICHARD MS4 66 ASPTT ANGERS TRI 6:29:14.60 243 180337689950MS4FRA
258 433 BOURDEAU PIERRE FRANCOIS MV1 61 TRIATHLON CLUB DES MONTS LYONNAIS 6:30:13.55 244 071607487632MV1FRA
259 76 CLAUDEL PIERRE MV2 33 MACH 3 TRIATHLON 6:30:36.63 245 070488150636MV2FRA
260 62 PROUTEAU CEDRIC MS3 47 SOCIETE SPORTIVE NIEULAISE 6:31:12.48 246 180816366160MS3FRA
261 373 LEBOUCHER DAVY MS4 67 pont audemer triathlon 6:31:43.42 247 190114638536MS4FRA
262 17 CHARI ABDELLAH MS4 68 U.S.O. BEZONS 6:32:10.64 248 011286848899MS4FRA
263 166 ANSTETT ALEXANDRE MS3 48 TRIATHLON CLUB AUXONNAIS 6:32:12.10 249 220618240947MS3FRA
264 105 LENNES PIERRE MV3 17 TDCH 6:32:44.91 250 56680M57
265 408 BRICOUT ERIC MS3 49 MONT BLANC TRIATHLON 6:32:52.68 251 071478315499ms3fra
266 232 DECOUSSE JEAN PHILIPPE MV1 62 ANGERS TRIATHLON 6:33:38.05 252 180071758942MV1FRA
267 196 AUBIN RAPHAEL MV1 63 ASPTT TRIATHLON BRIVE 6:33:49.23 253 160269533531MV1FRA
268 229 BORDET GERARD MS4 69 FEURS FOREZ TRIATHLON 6:34:01.94 254 071536018936MS4FRA
269 428 GROSSETETE JEAN MARC MV3 18 VAULX EN VELIN TRIATHLON 6:34:28.01 255 070610809136MV3FRA
270 51 RONDARD GREGORY MS3 50 FREE IRON TEAM 6:34:42.02 256 040319451699MS3FRA
271 79 LELIEVRE NOAM MS4 70 SOCIETE SPORTIVE NIEULAISE 6:34:57.56 257 180815415248MS4FRA
272 197 OLIVE LAURENT MV2 34 TRI07 PRIVAS TRIATHLON 6:35:06.92 258 071367296532MV2FRA
273 228 ERRIAHI SEMI MS4 71 TRICASTIN TRIATHLON CLUB 6:35:19.19 259 071320882736MS4FRA
274 490 ARDOINO MAGALI FS3 2 CHAMPIGNY TRIATHLON 6:35:48.88 6 1,71E+11
275 230 MASCI FRANCIS MV1 64 GUC TRIATHLON 6:35:59.92 260 071300846650MV1FRA
276 340 PROUVOST STEPHANE MS4 72 CHALON TRIATHLON CLUB 6:37:22.19 261 220067207636MS4FRA
277 484 MANGON PASCALE FV1 3 RILLIEUX TRIATHLON 6:37:25.34 7 1,71E+11
278 35 JACQUES FABIEN MV1 65 U.S.O. BEZONS 6:37:26.61 262 010118587799MV1FRA
279 59 GEENS THIERRY MS4 73 US Cagnes Triathlon 6:37:40.70 263 100563604860MS4FRA
280 334 MICHEL FREDERIC MV1 66 CRV LYON TRIATHLON 6:38:00.01 264 070608661299MV1FRA
281 301 ROUX HERVE MV1 67 TRIALP MOIRANS 6:38:06.91 265 071355559047MV1FRA
282 205 DEBATY NICOLAS MS2 15 ISTRES SPORT TRIATHLON 6:38:08.58 266 090115673450MS2FRA
283 208 BAVEREL FRANCOIS MS1 6 GUC TRIATHLON 6:40:14.26 267 071309433784MS1FRA
284 58 DEMOUGEOT JEAN YVES MV2 35 BESANCON TRIATHLON 6:40:23.49 268 230016774448MV2FRA
285 240 COPIN RICHARD MV4 4 SAINT PRIEST TRIATHLON 6:40:45.19 269 070587491270MV4FRA
286 48 MANGEAT PASCAL MV2 36 ASPTT.MULHOUSE TRIATHLON 6:41:26.80 270 060039076643MV2FRA
287 40 JOSEPH CHRISTOPHE MV1 68 TRI-COW-THLON71 6:41:37.97 271 220647068042MV1FRA
288 188 BOIRON LAURENT MV1 69   6:41:49.52 272 PASS JOURNEE
289 242 WALTER STEPHANE MV1 70 TRI LION BELFORT 6:42:28.01 273 230025835336MV1FRA
290 64 JOIRE LOIC MV2 37 SAINT AVERTIN SPORTS 37 6:42:48.48 274 170604751150MV2FRA
291 13 PINEAU STEPHANE MV1 71 ASPTT ANGERS TRI 6:42:52.76 275 180337689836MV1FRA
292 1 CHAPTAL XAVIER MV2 38 TRIATHLON 61 ARGENTAN 6:43:14.40 276 200045252847MV2FRA
293 113 SAUCEDE JACQUES MV2 39 TRIATHLON CLUB DE VILLEPARISIS 6:44:47.69 277 010485363150MV2FRA
294 161 LEBOUCHER LOIC MS4 74   6:45:04.39 278  
295 146 REY JEAN DANIEL MV2 40 VALENCE TRIATHLON 6:45:28.43 279 071290845299MV2FRA
296 98 MARIOTAT JEAN CHRISTOPHE MV1 72 FREE IRON TEAM 6:45:36.27 280 040317954642MV1FRA
297 63 HULPIAU CEDRIC MS4 75 CHIMAY COUVIN SHARKS TRIATHLON 6:45:47.66 281 57314M73
298 162 ROBBE CHRISTIAN MS4 76 TRIATHLON DU SALEVE 6:45:59.64 282 071377300436MS4FRA
299 192 BOISSIER PIERRE MV3 19 ALBERTVILLE TARENTAISE TRIATHLON 6:46:13.08 283 071626629531MV3FRA
300 418 DUFOUR PIERRE MS1 7 COMPIEGNE TRIATHLON 6:46:38.50 284 030178204584MS1FRA
301 31 TEISSIER LAURENT MV2 41   6:47:02.89 285 PASS JOURNEE
302 137 RIGAUT STEPHANE MV1 73 TRICASTIN TRIATHLON CLUB 6:47:17.78 286 07132835485MV1FRA
303 72 LEROUX DIDIER MS3 51 US IVRY TRIATHLON 6:47:30.05 287 010773996836MS3FRA
304 28 BOURGEOIS JEAN LUC MV2 42 VELIZY TRIATHLON 6:47:30.48 288 011577675936MV2FRA
305 136 THOMASSERY JULIEN MS2 16 LIMOGES TRIATHLON 6:47:37.31 289 160126834843MS2FRA
306 11 BRUNET PIERRE MV2 43 LE POIRE SUR VIE VENDEE TRIATHLON 6:47:56.78 290 180984320136MV2FRA
307 359 CHEVASSUT JEAN MARIE MV1 74 MENNECY TRIATHLON 6:48:31.12 291 011777694036MV1FRA
308 476 PREVOT RACHEL FV1 4 TRI SPIRIDON OYONNAX 6:48:48.55 8 1,71E+11
309 5 GRATEAU MARC MV2 44 SAINT AVERTIN SPORTS 37 6:48:48.62 292  
310 504 JOLLY CAROLINE MFEM 1 U.S. CRETEIL TRIATHLON 6:49:18.18 10 010226662750FS4FRA
311 91 DURAND LUC MV3 20 FREE IRON TEAM 6:49:33.36 293 040318692531MV3FRA
312 502 CLAVEL LANDRY MMIX 4 LES ALLIGATORS SEYNOD TRIATHLON 6:49:50.13 11 071406393950MS3FRA
313 95 CHARME REGINALD MS4 77 TRI-COW-THLON71 6:51:04.06 294 220645553432MS4FRA
314 44 DI BENEDETTO ALDO MV3 21 TRIATHLON SANNOIS FRANCONVILLE 6:51:09.95 295 011789274199MV3FRA
315 387 HUMBERT MATHIEU MS2 17 CLUB NAUTIQUE PONTARLIER TRIATHLON 6:52:06.74 296 230179527260MS2FRA
316 377 PERE JEAN YVES MS3 52 LEVALLOIS TRIATHLON 6:52:27.66 297 011136713050MS3FRA
317 25 YOUDJOU MICKAEL MV1 75 U.S.O. BEZONS 6:52:44.29 298 011289091807MV1FRA
318 68 ARRONDELLE DIDIER MV2 45 US PALAISEAU TRIATHLON 6:52:54.90 299 010366731632MV2FRA
319 23 PARANT ANDRE MV2 46 U.S.O. BEZONS 6:53:12.91 300 011283822847MV2FRA
320 217 SHAW KEN MV3 22 SPT 6:53:34.78 301 070584539832MV3FRA
321 327 DICKSON NEVILLE MV3 23 TriSaleve 6:54:05.87 302 071377837731MV3FRA
322 246 DURUAL DANIEL MV2 47   6:54:11.75 303 PASS JOURNEE
323 488 LAUREAU FLORENCE FV1 5 DIJON TRAITHLON 6:54:16.54 9 1,71E+11
324 157 CARLE LAURENT MV1 76 TRIATH CLUB ETAMPOIS 6:54:28.30 304 011988692436MV1FRA
325 337 LARROUTUROU CEDRIC MS2 18 TSD TRIATHLON 6:54:39.13 305 011706561432MS2FRA
326 366 CZERWIEC EMMANUEL MS4 78 ASAV TRIATHLON 6:54:44.29 306 220575785860MS4FRA
327 420 BERTRAND FRANCOIS MV2 48   6:55:28.88 307  
328 219 TIRTAINE THOMAS MS2 19 Orléanais Triathlon Club 45 6:55:59.09 308 170368454542MS2FRA
329 245 DUCAROUGE BRUNO MV1 77 DIJON TRIATHLON 6:56:13.91 309 220011936860MV1FRA
330 144 CARTHE DOMINIQUE MV1 78 ASL SUEZ SECTION TRIATHLON 6:56:21.02 310 01207866150MV1FRA
331 81 PRUD'HOMME PASCAL MV1 79 CHARTRES METROPOLE TRIATHLON 6:56:36.79 311 170296555447MV1FRA
332 47 CHAUDRON CLEMENT MS3 53 E.C. SARTROUVILLE 6:56:50.81 312 010815965432MS3FRA
333 189 MOUILLESEAUX XAVIER MV2 49   6:57:20.65 313 PASS JOURNEE
334 505 CHATEAU CECILE MFEM 2 ASVEL TRIATHLON 6:57:21.24 12 071044105050FS2FRA
335 482 DELVA ALICE FV1 6 TRIALP MOIRANS 6:57:30.10 10 1,71E+11
336 374 MIGNOT XAVIER MS4 79 pont audemer triathlon 6:57:55.01 314 190114278642MS4FRA
337 66 SURAY FREDERIC MS4 80 A.J. AUXERRE TRIATHLON 6:58:18.91 315 220088244136MS4FRA
338 410 PRUVOT PASCAL MV3 24 MONT BLANC TRIATHLON 6:58:23.63 316 071474466732MV3FRA
339 70 DRETZEN THIERRY MV2 50 S.O. HOUILLES TRIATHLON 7:00:05.46 317 010068172199MV2FRA
340 124 AUGIER FABRICE MV1 80 AVIGNON - LE PONTET TRIATHLON 7:00:44.16 318 090065720150MV1FRA
341 438 BRELOT MARC MV1 81 ISSY TRIATHLON 7:00:45.32 319 010625494636MV1FRA
342 130 SALEZ JEAN LOU MV2 51 AVIGNON - LE PONTET TRIATHLON 7:01:23.09 320 090064516323MV2FRA
343 139 GILBERT GUILLAUME MS4 81 TRI SALEVE 7:01:39.64 321 071374112147MS4FRA
344 475 LE PAPE MAGALI FS3 3 TRI 07 PRIVAS TRIATHLON 7:03:37.72 11 1,71E+11
345 111 GUILLAUMOND MAXIME MS3 54   7:03:51.44 322 PASS JOURNEE
346 422 BARBEREAU NICOLAS MS1 8   7:04:23.18 323  
347 184 CIRON LUDOVIC MS4 82 TRISALEVE 7:04:49.10 324 071373283750MS4FRA
348 473 HOCQUAUX CECILE FS3 4 TRISALEVE 7:04:49.61 12 1,71E+11
349 411 MASTNAK JEAN-PIERRE MV5 2 C.R.V LYON TRIATHLON 7:06:22.41 325 070600804032MV5FRA
350 416 DAIDECHE HENRY MV4 5 U.S. CRETEIL TRIATHLON 7:09:31.18 326 010220151148MV4FRA
351 73 OGER FREDERIK MS3 55 NORD PAS DE CALAIS 7:09:49.84 327 020539472732MS3FRA
352 127 COMBET JEAN FRANCOIS MV4 6 AVIGNON - LE PONTET TRIATHLON 7:11:02.00 328 090060960922MV4FRA
353 201 PALLADINO DANIEL MV2 52 SAINT PRIEST TRIATHLON 7:11:18.55 329 070587491723MV2FRA
354 463 NETZER EMMANUELLE FV1 7 US IVRY TRIATHLON 7:11:33.00 13 1,71E+11
355 296 LELOUP ERIC MV1 82 BOURGES TRIATHLON 7:11:33.58 330 170036643150MV1FRA
356 159 GOURJEANDE STEPHANE MV1 83 AS GIEN NATATION SECTION TRIAHTLON 7:12:55.32 331 170344154136MV1FRA
357 283 RAVAUX PHILIPPE MV3 25 BOURG EN BRESSE TRIATHLON 7:13:26.54 332 070415549848MV3FRA
358 69 CAOUDAL FREDERIC MV2 53 S.O. HOUILLES TRIATHLON 7:13:59.00 333 010060231947MV2FRA
359 170 VILLENEUVE STEPHANE MV1 84 TRIATHLON DU SALEVE 7:14:37.68 334 071377737221MV1SUI
360 199 CHATAIGNER JOEL MV2 54 ANNONAY TRIATHLON 7:15:19.58 335 07146085960MV2FRA
361 413 MOURLON YANNICK MS2 20 ASAV TRIATHLON 7:15:47.16 336 220577803850MS2FRA
362 206 SERVEL XAVIER MV4 7 CHARTRES METROPOLE TRIATHLON 7:16:12.35 337 170298496432MV4FRA
363 311 LEGAST PIERRE MV6 1 LES MILLE PATTES TRIATHLON 7:18:11.63 338 071280834631MV6FRA
364 67 GUIBERTEAU DANIEL MV3 26 ANTONY NATATION SECTION TRIATHLON 7:18:21.86 339 011795968599MV3FRA
365 466 MILLET BAYOL CHRISTINE FV2 2 AVIGNON - LE PONTET TRIATHLON 7:19:23.93 14 1,71E+11
366 474 POUJADE CHRISTELLE FS3 5 SAINT LAURENT NOUAN TRIATHLON 7:21:50.02 15 1,71E+11
367 480 BRUYERE NATHALIE FV1 8 COMITE SPORTIF DU LAC DES SAPINS 7:23:10.85 16 1,71E+11
368 112 GUILLAUMOND FLORIAN MS2 21   7:24:16.64 340 PASS JOURNEE
369 37 VATINEL DOMINIQUE MV4 8 COMPIEGNE TRIATHLON 7:24:28.04 341 030178030348MV3FRA
370 33 COEURDACIER JULIEN MS4 83 U.S.O. BEZONS 7:25:01.52 342 011286848899MS4FRA
371 241 MIGUEL ROGER MS4 84 TRIATHLON DU SALEVE 7:26:00.85 343 071377489932MS4FRA
372 131 COPPOLA LAURENT MS4 85 TRI NYON (Suisse) 7:26:21.91 344  
373 163 SERVIEN DANIEL MV2 55   7:27:00.55 345  
374 273 MICHEL OLIVIER MS3 56 ASVEL TRIATHLON 7:27:45.87 346 071046122136MS3FRA
375 472 CHAN MICHELE FS2 1 TRICANA 7:27:53.49 17 1,71E+11
376 160 VIDAL CYRIL MS4 86 AS GIEN NATATION SECTION TRIAHTLON 7:30:17.92 347 170345660350MS4FRA
377 341 QUILEZ EMILE MV2 56 A. L. ECHIROLLES 7:31:53.98 348 071427815143MV2FRA
378 75 SIMON ALEXANDRE MS2 22 CRV LYON TRIATHLON 7:33:55.19 349 070607595948MS2FRA
379 464 BOUCHE CECILE FS2 2 MEUDON TRIATHLON 7:34:50.01 18 1,71E+11
380 6 FOLTZ PIERRE ALAIN MV1 85 SAINT AVERTIN SPORTS 37 7:35:26.26 350  
381 45 KLEIN ANDREAS MV2 57 TRIATHLON CLUB TORCY 7:37:01.83 351 010580025936MV2ALL
382 138 MAZOUE JEAN MICHEL MV1 86 S.S.N TRI 7:37:09.46 352 180813046460MV1FRA
383 260 AULARD HERVE MV1 87 ASVEL TRIATHLON 7:39:11.75 353 071040815450MV1FRA
384 468 BOUTIN ISABELLE FV2 3 VELIZY TRIATHLON 7:39:49.14 19 1,71E+11
385 82 BONNEAU GERALD MV4 9 TRIATHLON DU SALEVE 7:44:36.33 354 071378138436MV4FRA
386 85 ABRAM DIDIER MV2 58 TRIATHLON DU SALEVE 7:44:38.00 355 071376817945MV2FRA
387 401 DEBATY FABRICE MV3 27 ISTRES SPORT TRIATHLON 7:45:49.59 356 090113751847MV3FRA
388 465 HAUDRY FRANCOISE FV4 1 TEAM MERMILLOD TRIATHLON 7:46:36.83 20 1,71E+11
389 42 CHANTREAU JEAN PAUL MV4 10 ENTENTE SPORTIVE NANTERRE 7:47:55.29 357 010537810150MV4FRA
390 8 ALIBERT YVES MV2 59 SAINT AVERTIN SPORTS 37 7:49:10.38 358  
391 176 MAGNIN HUGUES MS4 87 COMITE SPORTIF DU LAC DES SAPINS 7:53:59.23 359 071248153650MS4FRA
392 193 HANQUART CHRISTOPHE MS4 88 CHAMBERY TRIATHLON 7:54:37.78 360 071345175532MS4FRA
393 110 CAMPANA REMI MS3 57 CAVAILLON TRIATHLON CLUB 7:56:03.69 361 090328416136MS3FRA
394 372 DESVERGNES RAPHAEL MS4 89   7:57:49.71 362 PASS JOURNEE
395 270 LLORENS ERIC MV3 28 ASVEL TRIATHLON 8:06:11.12 363 071043712247MV3FRA
396 293 DUMONT PHILIPPE MV5 3 ANNONAY TRIATHLON 8:06:45.97 364 071464108236MV5FRA
397 486 VUILLAMIER SANDRINE FS3 6 ASPTT.MULHOUSE TRIATHLON 8:09:26.22 21 1,71E+11
398 204 LECOURBARON LUDOVIC MS3 58 E.C. SARTROUVILLE 8:22:41.53 365 010816889736MS3FRA
399 16 BERTRES JEAN MARIE MV1 0 U.S.O. BEZONS 0:00:00.00 Abd 011285662999MV1FRA
400 22 BOUDGEMA   MV2 0 U.S.O. BEZONS 0:00:00.00 Abd 011287348736MV2FRA
401 24 SPORRI HEINZ MV3 0 U.S.O. BEZONS 0:00:00.00 Abd 011284239436MV3FRA
402 29 FABBRI MICHAEL MS2 0 ASSP TRIATHLON 69 0:00:00.00 Abd 071570781850MS2FRA
403 84 CARTON FABIEN MS2 0 TRIATHLON DU SALEVE 0:00:00.00 Abd 071378628350MS2FRA
404 97 KASZA ALAIN MV2 0 FREE IRON TEAM 0:00:00.00 Abd 040316202860MV2FRA
405 117 DUPLAN FLORIAN MS1 0 CAVAILLON TRIATHLON CLUB 0:00:00.00 Abd 090326876343MS1FRA
406 154 AUBIN CHRISTIAN MV1 0 TRIATHLON DU SALEVE 0:00:00.00 Abd 071373741199MV1FRA
407 213 BENIER SEBASTIEN MS3 0 A. L. ECHIROLLES 0:00:00.00 Abd 071426819399ms3fra
408 218 LE JAOUDOUR THIERRY MV2 0 US PALAISEAU TRIATHLON 0:00:00.00 Abd 010368473836MV2FRA
409 244 STEPHAN PASCAL MV3 0 TRIATHLON VILLEFRANCHE SAONE VALLE 0:00:00.00 Abd 070669027843MV3FRA
410 318 COGNE PASCAL MV1 0 LES ALLIGATORS SEYNOD TRIATHLON 0:00:00.00 Abd 071402297421MV1FRA
411 322 LAMBERTHOD FRANCK MS4 0 TRI LION BELFORT 0:00:00.00 Abd 230025835236MS4FRA
412 328 CHABUEL FABIEN MS4 0 Echirolles Triathlon 0:00:00.00 Abd 071425229036MS4FRA
413 348 LAUNAY GREGOIRE MS2 0 FREE IRON TEAM 0:00:00.00 Abd 040317869884MS2FRA
414 397 BLANC JULIEN MS2 0 TEAM MERMILLOD TRIATHLON 0:00:00.00 Abd 071453904084MS2FRA
415 417 BRUNET-MANQUAT GILBERT Mv3 0 ISTRES SPORTS TRIATHLON 0:00:00.00 Abd 090110846147mv3FRA
416 425 BOSSA BRUNO MS4 0 MACH3 TRIATHLON 0:00:00.00 Abd 070482819552MS4FRA
417 440 CHRISTIN NICOLAS MS3 0 A. L. ECHIROLLES 0:00:00.00 Abd 071427160336MS3FRA
418 462 HIEBEL CAROLINE FS4 0 TOAC 0:00:00.00 Abd 1,71E+11
419 508 CHAPEAU PHILIPPE MMAS 0 ASAV TRIATHLON 6:30:46.58 Dsq 220575741836MV2FRA